createdAt,value
2017-09-15T04:36:09.938Z,12.69
2017-09-15T04:37:23.636Z,12.52
2017-09-15T04:38:37.465Z,12.47
2017-09-15T04:39:51.045Z,12.46
2017-09-15T04:41:10.557Z,12.46
2017-09-15T04:42:34.320Z,12.42
2017-09-15T04:43:58.328Z,12.41
2017-09-15T04:45:12.224Z,12.38
2017-09-15T04:46:26.087Z,12.38
2017-09-15T04:47:40.344Z,12.37
2017-09-15T04:49:17.317Z,12.37
2017-09-15T04:50:31.183Z,12.39
2017-09-15T04:51:45.163Z,12.39
2017-09-15T04:52:58.953Z,12.4
2017-09-15T04:54:13.238Z,12.4
2017-09-15T04:55:27.080Z,12.37
2017-09-15T04:56:42.507Z,12.37
2017-09-15T04:57:56.267Z,12.36
2017-09-15T04:59:10.090Z,12.35
2017-09-15T05:00:38.338Z,12.34
2017-09-15T05:01:52.308Z,12.33
2017-09-15T05:03:06.195Z,12.32
2017-09-15T05:04:19.995Z,12.34
2017-09-15T05:05:34.281Z,12.36
2017-09-15T05:06:48.206Z,12.37
2017-09-15T05:08:48.303Z,12.39
2017-09-15T05:10:02.097Z,12.42
2017-09-15T05:11:16.085Z,12.43
2017-09-15T05:12:30.933Z,12.46
2017-09-15T05:13:44.496Z,12.49
2017-09-15T05:14:59.030Z,12.53
2017-09-15T05:16:13.210Z,12.56
2017-09-15T05:18:06.728Z,12.6
2017-09-15T05:19:20.557Z,12.61
2017-09-15T05:20:34.449Z,12.65
2017-09-15T05:21:48.378Z,12.67
2017-09-15T05:23:02.536Z,12.66
2017-09-15T05:24:16.971Z,12.69
2017-09-15T05:25:30.712Z,12.72
2017-09-15T05:26:47.559Z,12.74
2017-09-15T05:28:01.129Z,12.74
2017-09-15T05:29:36.504Z,12.76
2017-09-15T05:30:50.238Z,12.77
2017-09-15T05:32:03.883Z,12.8
2017-09-15T05:33:17.743Z,12.81
2017-09-15T05:34:31.794Z,12.8
2017-09-15T05:35:45.897Z,12.82
2017-09-15T05:36:59.552Z,12.83
2017-09-15T05:38:13.885Z,12.84
2017-09-15T05:39:27.495Z,12.87
2017-09-15T05:41:01.180Z,12.89
2017-09-15T05:42:14.890Z,12.93
2017-09-15T05:43:28.653Z,12.98
2017-09-15T05:44:43.074Z,13.03
2017-09-15T05:45:56.861Z,13.09
2017-09-15T05:47:10.916Z,13.13
2017-09-15T05:48:24.826Z,13.13
2017-09-15T05:49:39.323Z,13.17
2017-09-15T05:50:53.504Z,13.19
2017-09-15T05:52:07.879Z,13.21
2017-09-15T05:53:21.904Z,13.25
2017-09-15T05:54:37.699Z,13.29
2017-09-15T05:55:53.126Z,13.33
2017-09-15T05:57:23.077Z,13.36
2017-09-15T05:58:58.028Z,13.43
2017-09-15T06:00:43.723Z,13.47
2017-09-15T06:01:57.742Z,13.51
2017-09-15T06:03:12.454Z,13.52
2017-09-15T06:04:40.229Z,13.5
2017-09-15T06:05:54.557Z,13.5
2017-09-15T06:07:08.741Z,13.5
2017-09-15T06:08:22.455Z,13.5
2017-09-15T06:09:40.735Z,13.5
2017-09-15T06:11:04.024Z,13.5
2017-09-15T06:12:18.090Z,13.5
2017-09-15T06:13:32.205Z,13.52
2017-09-15T06:15:38.614Z,13.55
2017-09-15T06:16:52.550Z,13.59
2017-09-15T06:18:06.152Z,13.62
2017-09-15T06:19:20.044Z,13.64
2017-09-15T06:20:33.613Z,13.68
2017-09-15T06:21:47.459Z,13.68
2017-09-15T06:23:01.472Z,13.7
2017-09-15T06:24:16.127Z,13.73
2017-09-15T06:25:30.036Z,13.75
2017-09-15T06:26:43.837Z,13.78
2017-09-15T06:27:57.899Z,13.82
2017-09-15T06:29:12.507Z,13.86
2017-09-15T06:30:27.145Z,13.87
2017-09-15T06:32:08.950Z,13.88
2017-09-15T06:33:22.720Z,13.86
2017-09-15T06:34:36.593Z,13.88
2017-09-15T06:35:50.456Z,13.88
2017-09-15T06:37:04.230Z,13.88
2017-09-15T06:38:18.816Z,13.88
2017-09-15T06:39:32.933Z,13.87
2017-09-15T06:40:46.799Z,13.85
2017-09-15T06:42:00.396Z,13.85
2017-09-15T06:43:14.407Z,13.87
2017-09-15T06:44:28.053Z,13.88
2017-09-15T06:45:42.793Z,13.89
2017-09-15T06:46:59.538Z,13.93
2017-09-15T06:48:31.586Z,13.98
2017-09-15T06:49:45.394Z,14.04
2017-09-15T06:50:59.028Z,14.08
2017-09-15T06:52:13.554Z,14.13
2017-09-15T06:53:27.133Z,14.19
2017-09-15T06:54:41.297Z,14.24
2017-09-15T06:55:55.348Z,14.28
2017-09-15T06:57:09.221Z,14.3
2017-09-15T06:58:22.832Z,14.29
2017-09-15T06:59:39.305Z,14.27
2017-09-15T07:00:53.135Z,14.27
2017-09-15T07:02:21.292Z,14.26
2017-09-15T07:03:35.582Z,14.28
2017-09-15T07:04:49.985Z,14.29
2017-09-15T07:06:04.015Z,14.3
2017-09-15T07:07:17.939Z,14.31
2017-09-15T07:08:32.903Z,14.32
2017-09-15T07:09:47.347Z,14.38
2017-09-15T07:11:01.495Z,14.42
2017-09-15T07:12:45.764Z,14.47
2017-09-15T07:13:59.466Z,14.55
2017-09-15T07:15:13.150Z,14.62
2017-09-15T07:16:28.214Z,14.64
2017-09-15T07:17:45.069Z,14.68
2017-09-15T07:19:25.277Z,14.73
2017-09-15T07:20:39.164Z,14.79
2017-09-15T07:21:53.938Z,14.84
2017-09-15T07:23:09.431Z,14.9
2017-09-15T07:24:23.107Z,14.96
2017-09-15T07:25:37.023Z,15.01
2017-09-15T07:26:50.965Z,15.05
2017-09-15T07:28:36.301Z,15.09
2017-09-15T07:29:50.319Z,15.16
2017-09-15T07:31:04.522Z,15.21
2017-09-15T07:32:19.161Z,15.26
2017-09-15T07:33:32.957Z,15.3
2017-09-15T07:34:47.089Z,15.3
2017-09-15T07:36:01.153Z,15.34
2017-09-15T07:37:15.708Z,15.37
2017-09-15T07:38:29.428Z,15.39
2017-09-15T07:39:43.438Z,15.41
2017-09-15T07:40:57.550Z,15.44
2017-09-15T07:42:56.423Z,15.48
2017-09-15T07:44:10.754Z,15.55
2017-09-15T07:45:27.664Z,15.6
2017-09-15T07:47:29.704Z,15.65
2017-09-15T07:49:14.642Z,15.66
2017-09-15T07:50:38.549Z,15.66
2017-09-15T07:52:04.217Z,15.71
2017-09-15T07:53:30.558Z,15.76
2017-09-15T07:54:52.958Z,15.81
2017-09-15T07:56:41.525Z,15.85
2017-09-15T07:58:16.568Z,15.88
2017-09-15T07:59:43.815Z,15.9
2017-09-15T08:01:08.016Z,15.92
2017-09-15T08:02:31.573Z,15.98
2017-09-15T08:03:57.612Z,16.02
2017-09-15T08:05:40.671Z,16.07
2017-09-15T08:07:02.847Z,16.17
2017-09-15T08:08:22.179Z,16.24
2017-09-15T08:09:49.152Z,16.33
2017-09-15T08:11:12.200Z,16.43
2017-09-15T08:12:44.672Z,16.5
2017-09-15T08:14:09.185Z,16.58
2017-09-15T08:15:36.236Z,16.66
2017-09-15T08:17:01.395Z,16.74
2017-09-15T08:18:39.300Z,16.77
2017-09-15T08:20:51.335Z,16.83
2017-09-15T08:22:42.271Z,16.88
2017-09-15T08:24:10.137Z,16.87
2017-09-15T08:25:34.509Z,16.91
2017-09-15T08:27:28.806Z,16.94
2017-09-15T08:29:02.288Z,16.99
2017-09-15T08:30:52.209Z,17.05
2017-09-15T08:32:29.195Z,17.09
2017-09-15T08:33:54.341Z,17.1
2017-09-15T08:35:17.029Z,17.08
2017-09-15T08:36:43.919Z,17.1
2017-09-15T08:38:06.642Z,17.14
2017-09-15T08:39:59.829Z,17.2
2017-09-15T08:41:48.026Z,17.28
2017-09-15T08:43:29.995Z,17.32
2017-09-15T08:44:54.300Z,17.31
2017-09-15T08:46:20.232Z,17.33
2017-09-15T08:47:45.175Z,17.3
2017-09-15T08:49:15.299Z,17.25
2017-09-15T08:50:40.543Z,17.19
2017-09-15T08:52:03.977Z,17.12
2017-09-15T08:54:04.781Z,17.05
2017-09-15T08:55:41.608Z,17.02
2017-09-15T08:57:07.181Z,17.04
2017-09-15T08:58:31.214Z,17.07
2017-09-15T08:59:53.167Z,17.1
2017-09-15T09:01:15.825Z,17.14
2017-09-15T09:02:41.821Z,17.16
2017-09-15T09:04:05.986Z,17.2
2017-09-15T09:05:39.045Z,17.25
2017-09-15T09:07:00.008Z,17.31
2017-09-15T09:08:21.169Z,17.41
2017-09-15T09:09:53.764Z,17.54
2017-09-15T09:11:14.705Z,17.68
2017-09-15T09:13:41.814Z,17.8
2017-09-15T09:15:04.153Z,18
2017-09-15T09:16:27.200Z,18.15
2017-09-15T09:17:50.449Z,18.21
2017-09-15T09:19:04.708Z,18.28
2017-09-15T09:20:18.395Z,18.33
2017-09-15T09:21:32.627Z,18.37
2017-09-15T09:22:46.539Z,18.43
2017-09-15T09:24:00.703Z,18.47
2017-09-15T09:25:14.467Z,18.53
2017-09-15T09:26:28.164Z,18.56
2017-09-15T09:27:42.316Z,18.59
2017-09-15T09:28:56.006Z,18.6
2017-09-15T09:30:09.999Z,18.61
2017-09-15T09:31:23.939Z,18.59
2017-09-15T09:32:38.308Z,18.57
2017-09-15T09:33:53.149Z,18.55
2017-09-15T09:35:07.253Z,18.58
2017-09-15T09:36:20.999Z,18.6
2017-09-15T09:37:34.756Z,18.62
2017-09-15T09:38:48.571Z,18.64
2017-09-15T09:40:02.825Z,18.65
2017-09-15T09:41:16.537Z,18.65
2017-09-15T09:42:30.574Z,18.67
2017-09-15T09:43:44.281Z,18.68
2017-09-15T09:44:58.147Z,18.71
2017-09-15T09:46:12.111Z,18.74
2017-09-15T09:47:26.312Z,18.72
2017-09-15T09:48:40.114Z,18.69
2017-09-15T09:49:53.910Z,18.67
2017-09-15T09:51:07.561Z,18.68
2017-09-15T09:52:22.504Z,18.74
2017-09-15T09:53:36.351Z,18.81
2017-09-15T09:54:50.484Z,18.86
2017-09-15T09:56:04.307Z,18.89
2017-09-15T09:57:18.633Z,18.91
2017-09-15T09:58:32.468Z,18.97
2017-09-15T09:59:46.159Z,18.99
2017-09-15T10:00:59.973Z,18.99
2017-09-15T10:02:14.308Z,18.95
2017-09-15T10:03:28.388Z,18.87
2017-09-15T10:04:41.983Z,18.83
2017-09-15T10:05:58.409Z,18.78
2017-09-15T10:07:12.850Z,18.68
2017-09-15T10:08:26.689Z,18.63
2017-09-15T10:09:40.423Z,18.57
2017-09-15T10:10:54.762Z,18.56
2017-09-15T10:12:08.885Z,18.56
2017-09-15T10:13:22.817Z,18.56
2017-09-15T10:14:37.090Z,18.56
2017-09-15T10:15:51.190Z,18.58
2017-09-15T10:17:07.720Z,18.59
2017-09-15T10:18:29.342Z,18.59
2017-09-15T10:19:42.988Z,18.58
2017-09-15T10:20:57.284Z,18.56
2017-09-15T10:22:14.557Z,18.6
2017-09-15T10:23:28.590Z,18.61
2017-09-15T10:24:42.574Z,18.62
2017-09-15T10:25:57.822Z,18.57
2017-09-15T10:27:12.900Z,18.53
2017-09-15T10:28:27.271Z,18.53
2017-09-15T10:29:42.799Z,18.55
2017-09-15T10:30:56.780Z,18.57
2017-09-15T10:32:10.888Z,18.61
2017-09-15T10:33:24.656Z,18.64
2017-09-15T10:34:38.341Z,18.69
2017-09-15T10:35:52.481Z,18.71
2017-09-15T10:37:06.744Z,18.75
2017-09-15T10:38:20.421Z,18.81
2017-09-15T10:39:34.157Z,18.86
2017-09-15T10:40:48.254Z,18.9
2017-09-15T10:42:01.986Z,18.95
2017-09-15T10:43:15.570Z,19.03
2017-09-15T10:44:29.178Z,19.13
2017-09-15T10:45:43.028Z,19.26
2017-09-15T10:46:56.850Z,19.44
2017-09-15T10:48:10.521Z,19.65
2017-09-15T10:49:24.130Z,19.84
2017-09-15T10:50:37.744Z,20.02
2017-09-15T10:51:51.660Z,20.19
2017-09-15T10:53:05.484Z,20.39
2017-09-15T10:54:19.560Z,20.57
2017-09-15T10:55:33.157Z,20.73
2017-09-15T10:56:47.110Z,20.87
2017-09-15T10:58:00.779Z,20.99
2017-09-15T10:59:14.466Z,21.02
2017-09-15T11:00:28.271Z,20.96
2017-09-15T11:01:41.881Z,20.84
2017-09-15T11:02:55.553Z,20.72
2017-09-15T11:04:09.234Z,20.66
2017-09-15T11:05:22.860Z,20.54
2017-09-15T11:06:36.633Z,20.45
2017-09-15T11:07:50.822Z,20.37
2017-09-15T11:09:24.573Z,20.32
2017-09-15T11:10:38.371Z,20.3
2017-09-15T11:11:52.449Z,20.28
2017-09-15T11:13:06.657Z,20.31
2017-09-15T11:14:20.427Z,20.3
2017-09-15T11:15:34.578Z,20.28
2017-09-15T11:16:48.727Z,20.24
2017-09-15T11:18:03.845Z,20.18
2017-09-15T11:19:17.516Z,20.18
2017-09-15T11:20:31.336Z,20.16
2017-09-15T11:21:44.989Z,20.17
2017-09-15T11:22:58.622Z,20.19
2017-09-15T11:24:13.056Z,20.18
2017-09-15T11:25:27.091Z,20.22
2017-09-15T11:26:40.911Z,20.25
2017-09-15T11:27:55.366Z,20.28
2017-09-15T11:29:09.053Z,20.29
2017-09-15T11:30:23.316Z,20.29
2017-09-15T11:31:36.906Z,20.29
2017-09-15T11:32:50.676Z,20.28
2017-09-15T11:34:04.503Z,20.3
2017-09-15T11:35:18.614Z,20.33
2017-09-15T11:36:33.447Z,20.33
2017-09-15T11:37:47.414Z,20.31
2017-09-15T11:39:01.024Z,20.27
2017-09-15T11:40:14.860Z,20.22
2017-09-15T11:41:28.460Z,20.19
2017-09-15T11:42:42.356Z,20.19
2017-09-15T11:43:55.955Z,20.2
2017-09-15T11:45:09.931Z,20.19
2017-09-15T11:46:23.934Z,20.19
2017-09-15T11:47:37.534Z,20.18
2017-09-15T11:48:51.432Z,20.18
2017-09-15T11:50:05.436Z,20.14
2017-09-15T11:51:19.351Z,20.08
2017-09-15T11:52:33.009Z,19.98
2017-09-15T11:53:46.652Z,19.89
2017-09-15T11:55:01.693Z,19.8
2017-09-15T11:56:16.296Z,19.7
2017-09-15T11:57:30.342Z,19.64
2017-09-15T11:58:44.280Z,19.59
2017-09-15T11:59:58.210Z,19.54
2017-09-15T12:01:11.855Z,19.53
2017-09-15T12:02:25.611Z,19.52
2017-09-15T12:03:39.257Z,19.49
2017-09-15T12:04:53.279Z,19.49
2017-09-15T12:06:08.118Z,19.51
2017-09-15T12:07:23.761Z,19.58
2017-09-15T12:08:37.664Z,19.68
2017-09-15T12:09:51.412Z,19.77
2017-09-15T12:11:05.124Z,19.85
2017-09-15T12:12:19.527Z,19.97
2017-09-15T12:13:34.177Z,20.06
2017-09-15T12:14:47.976Z,20.16
2017-09-15T12:16:02.176Z,20.25
2017-09-15T12:17:16.793Z,20.3
2017-09-15T12:18:30.534Z,20.33
2017-09-15T12:19:45.205Z,20.35
2017-09-15T12:20:59.221Z,20.37
2017-09-15T12:22:13.148Z,20.37
2017-09-15T12:23:28.011Z,20.35
2017-09-15T12:24:42.215Z,20.32
2017-09-15T12:25:56.127Z,20.25
2017-09-15T12:27:09.755Z,20.18
2017-09-15T12:28:24.800Z,20.09
2017-09-15T12:29:38.826Z,20
2017-09-15T12:30:52.753Z,19.87
2017-09-15T12:32:07.248Z,19.73
2017-09-15T12:33:53.351Z,19.53
2017-09-15T12:35:07.378Z,19.14
2017-09-15T12:36:22.359Z,18.83
2017-09-15T12:37:36.403Z,18.45
2017-09-15T12:38:50.244Z,17.99
2017-09-15T12:40:05.098Z,17.6
2017-09-15T12:41:18.690Z,17.25
2017-09-15T12:42:33.595Z,17.02
2017-09-15T12:43:48.141Z,16.83
2017-09-15T12:45:01.969Z,16.71
2017-09-15T12:46:15.702Z,16.64
2017-09-15T12:47:29.486Z,16.64
2017-09-15T12:48:44.141Z,16.66
2017-09-15T12:49:57.871Z,16.72
2017-09-15T12:51:11.476Z,16.78
2017-09-15T12:52:25.354Z,16.86
2017-09-15T12:53:38.980Z,16.95
2017-09-15T12:54:53.071Z,17.07
2017-09-15T12:56:06.825Z,17.2
2017-09-15T12:57:20.412Z,17.34
2017-09-15T12:58:34.338Z,17.48
2017-09-15T12:59:48.247Z,17.62
2017-09-15T13:01:02.234Z,17.8
2017-09-15T13:02:16.002Z,17.95
2017-09-15T13:03:29.608Z,18.08
2017-09-15T13:04:43.475Z,18.24
2017-09-15T13:05:57.106Z,18.39
2017-09-15T13:07:11.052Z,18.52
2017-09-15T13:08:24.717Z,18.66
2017-09-15T13:09:39.163Z,18.77
2017-09-15T13:10:53.409Z,18.89
2017-09-15T13:12:07.002Z,19.02
2017-09-15T13:13:21.050Z,19.11
2017-09-15T13:14:34.780Z,19.17
2017-09-15T13:15:49.806Z,19.25
2017-09-15T13:17:03.779Z,19.34
2017-09-15T13:18:18.667Z,19.43
2017-09-15T13:19:32.461Z,19.51
2017-09-15T13:20:46.327Z,19.57
2017-09-15T13:22:00.690Z,19.62
2017-09-15T13:23:14.330Z,19.65
2017-09-15T13:24:28.004Z,19.63
2017-09-15T13:25:41.633Z,19.58
2017-09-15T13:26:55.300Z,19.52
2017-09-15T13:28:09.163Z,19.47
2017-09-15T13:29:22.840Z,19.38
2017-09-15T13:30:36.801Z,19.34
2017-09-15T13:31:50.625Z,19.28
2017-09-15T13:33:04.255Z,19.25
2017-09-15T13:34:17.898Z,19.21
2017-09-15T13:35:31.475Z,19.18
2017-09-15T13:36:45.207Z,19.18
2017-09-15T13:37:58.819Z,19.2
2017-09-15T13:39:12.910Z,19.24
2017-09-15T13:40:26.520Z,19.27
2017-09-15T13:41:40.978Z,19.33
2017-09-15T13:42:54.794Z,19.39
2017-09-15T13:44:08.536Z,19.43
2017-09-15T13:45:23.737Z,19.44
2017-09-15T13:46:37.357Z,19.48
2017-09-15T13:47:51.629Z,19.52
2017-09-15T13:49:05.670Z,19.55
2017-09-15T13:50:19.272Z,19.59
2017-09-15T13:51:33.115Z,19.63
2017-09-15T13:52:47.243Z,19.63
2017-09-15T13:54:01.309Z,19.62
2017-09-15T13:55:15.749Z,19.59
2017-09-15T13:56:29.950Z,19.53
2017-09-15T13:57:44.089Z,19.47
2017-09-15T13:58:58.076Z,19.42
2017-09-15T14:00:11.760Z,19.41
2017-09-15T14:01:29.503Z,19.39
2017-09-15T14:02:43.742Z,19.39
2017-09-15T14:03:57.312Z,19.34
2017-09-15T14:05:11.282Z,19.29
2017-09-15T14:06:24.993Z,19.22
2017-09-15T14:07:38.618Z,19.17
2017-09-15T14:08:52.588Z,19.11
2017-09-15T14:10:06.216Z,19.09
2017-09-15T14:11:19.801Z,19.02
2017-09-15T14:12:34.019Z,19
2017-09-15T14:13:48.058Z,18.99
2017-09-15T14:15:02.042Z,19.03
2017-09-15T14:16:15.945Z,19.09
2017-09-15T14:17:29.527Z,19.15
2017-09-15T14:18:43.142Z,19.22
2017-09-15T14:19:56.793Z,19.26
2017-09-15T14:21:10.497Z,19.29
2017-09-15T14:22:24.224Z,19.29
2017-09-15T14:23:37.827Z,19.29
2017-09-15T14:24:51.857Z,19.29
2017-09-15T14:26:05.677Z,19.27
2017-09-15T14:27:19.851Z,19.24
2017-09-15T14:28:34.150Z,19.17
2017-09-15T14:29:47.892Z,19.13
2017-09-15T14:31:01.917Z,19.07
2017-09-15T14:32:16.417Z,19.03
2017-09-15T14:33:30.688Z,18.98
2017-09-15T14:34:44.974Z,18.92
2017-09-15T14:35:58.894Z,18.86
2017-09-15T14:37:12.728Z,18.84
2017-09-15T14:38:26.508Z,18.85
2017-09-15T14:39:40.620Z,18.84
2017-09-15T14:40:54.553Z,18.84
2017-09-15T14:42:08.157Z,18.84
2017-09-15T14:43:22.101Z,18.87
2017-09-15T14:44:37.250Z,18.92
2017-09-15T14:45:51.037Z,18.95
2017-09-15T14:47:04.625Z,19.03
2017-09-15T14:48:18.244Z,19.11
2017-09-15T14:49:31.865Z,19.19
2017-09-15T14:50:46.093Z,19.25
2017-09-15T14:52:00.502Z,19.3
2017-09-15T14:53:14.375Z,19.3
2017-09-15T14:54:28.009Z,19.26
2017-09-15T14:55:42.379Z,19.25
2017-09-15T14:56:55.984Z,19.22
2017-09-15T14:58:11.303Z,19.19
2017-09-15T14:59:25.287Z,19.15
2017-09-15T15:00:39.263Z,19.14
2017-09-15T15:01:53.291Z,19.13
2017-09-15T15:03:07.057Z,19.13
2017-09-15T15:04:21.321Z,19.16
2017-09-15T15:05:35.279Z,19.19
2017-09-15T15:06:49.410Z,19.27
2017-09-15T15:08:03.040Z,19.32
2017-09-15T15:09:16.715Z,19.36
2017-09-15T15:10:30.611Z,19.41
2017-09-15T15:11:45.055Z,19.43
2017-09-15T15:12:58.768Z,19.45
2017-09-15T15:14:12.797Z,19.48
2017-09-15T15:15:26.633Z,19.5
2017-09-15T15:16:40.648Z,19.5
2017-09-15T15:17:55.358Z,19.48
2017-09-15T15:19:10.031Z,19.45
2017-09-15T15:20:25.691Z,19.45
2017-09-15T15:21:40.234Z,19.45
2017-09-15T15:22:53.993Z,19.41
2017-09-15T15:24:08.688Z,19.36
2017-09-15T15:25:22.494Z,19.32
2017-09-15T15:26:36.736Z,19.28
2017-09-15T15:27:50.848Z,19.26
2017-09-15T15:29:05.172Z,19.25
2017-09-15T15:30:19.424Z,19.25
2017-09-15T15:31:33.421Z,19.24
2017-09-15T15:32:47.076Z,19.22
2017-09-15T15:34:00.678Z,19.16
2017-09-15T15:35:14.308Z,19.11
2017-09-15T15:36:28.798Z,19.02
2017-09-15T15:37:42.512Z,18.94
2017-09-15T15:38:56.849Z,18.84
2017-09-15T15:40:30.029Z,18.76
2017-09-15T15:41:45.531Z,18.63
2017-09-15T15:42:59.284Z,18.54
2017-09-15T15:44:12.990Z,18.46
2017-09-15T15:45:26.920Z,18.39
2017-09-15T15:46:41.399Z,18.3
2017-09-15T15:47:55.354Z,18.21
2017-09-15T15:49:09.155Z,18.13
2017-09-15T15:50:22.821Z,18.04
2017-09-15T15:51:36.910Z,17.93
2017-09-15T15:52:50.961Z,17.86
2017-09-15T15:54:06.279Z,17.83
2017-09-15T15:55:20.546Z,17.81
2017-09-15T15:56:34.969Z,17.77
2017-09-15T15:57:48.716Z,17.74
2017-09-15T15:59:02.688Z,17.73
2017-09-15T16:00:16.587Z,17.69
2017-09-15T16:01:30.252Z,17.66
2017-09-15T16:02:43.861Z,17.59
2017-09-15T16:03:57.810Z,17.54
2017-09-15T16:05:11.692Z,17.49
2017-09-15T16:06:25.793Z,17.44
2017-09-15T16:07:40.230Z,17.35
2017-09-15T16:08:54.065Z,17.26
2017-09-15T16:10:07.684Z,17.17
2017-09-15T16:11:22.002Z,17.09
2017-09-15T16:12:35.925Z,17
2017-09-15T16:13:49.517Z,16.91
2017-09-15T16:15:03.431Z,16.84
2017-09-15T16:16:17.446Z,16.78
2017-09-15T16:17:32.048Z,16.71
2017-09-15T16:18:47.312Z,16.64
2017-09-15T16:20:00.960Z,16.6
2017-09-15T16:21:15.577Z,16.53
2017-09-15T16:22:29.321Z,16.48
2017-09-15T16:23:43.724Z,16.47
2017-09-15T16:24:57.912Z,16.42
2017-09-15T16:26:12.320Z,16.4
2017-09-15T16:27:25.924Z,16.38
2017-09-15T16:28:39.498Z,16.35
2017-09-15T16:29:53.137Z,16.34
2017-09-15T16:31:07.449Z,16.32
2017-09-15T16:32:21.818Z,16.32
2017-09-15T16:33:36.881Z,16.29
2017-09-15T16:34:52.371Z,16.29
2017-09-15T16:36:07.110Z,16.3
2017-09-15T16:37:21.817Z,16.35
2017-09-15T16:38:36.449Z,16.38
2017-09-15T16:39:50.077Z,16.43
2017-09-15T16:41:05.490Z,16.44
2017-09-15T16:42:20.430Z,16.43
2017-09-15T16:43:34.321Z,16.39
2017-09-15T16:44:48.085Z,16.38
2017-09-15T16:46:01.783Z,16.36
2017-09-15T16:47:15.530Z,16.34
2017-09-15T16:48:30.220Z,16.35
2017-09-15T16:49:44.250Z,16.3
2017-09-15T16:50:57.903Z,16.27
2017-09-15T16:52:12.230Z,16.26
2017-09-15T16:53:26.680Z,16.23
2017-09-15T16:54:41.462Z,16.2
2017-09-15T16:55:57.187Z,16.16
2017-09-15T16:57:13.453Z,16.13
2017-09-15T16:58:27.882Z,16.09
2017-09-15T16:59:42.078Z,16.03
2017-09-15T17:00:55.701Z,15.99
2017-09-15T17:02:09.732Z,15.93
2017-09-15T17:03:24.148Z,15.88
2017-09-15T17:04:37.867Z,15.84
2017-09-15T17:05:51.559Z,15.79
2017-09-15T17:07:05.380Z,15.74
2017-09-15T17:08:19.567Z,15.69
2017-09-15T17:09:33.432Z,15.63
2017-09-15T17:10:48.016Z,15.58
2017-09-15T17:12:01.736Z,15.55
2017-09-15T17:13:15.813Z,15.51
2017-09-15T17:14:29.497Z,15.46
2017-09-15T17:15:43.329Z,15.41
2017-09-15T17:16:57.274Z,15.36
2017-09-15T17:18:11.978Z,15.31
2017-09-15T17:19:26.585Z,15.27
2017-09-15T17:20:40.592Z,15.25
2017-09-15T17:21:54.253Z,15.21
2017-09-15T17:23:07.966Z,15.17
2017-09-15T17:24:22.040Z,15.13
2017-09-15T17:25:35.862Z,15.11
2017-09-15T17:26:50.180Z,15.05
2017-09-15T17:28:03.887Z,15.03
2017-09-15T17:29:19.413Z,15
2017-09-15T17:30:42.753Z,14.94
2017-09-15T17:32:10.101Z,14.9
2017-09-15T17:33:36.585Z,14.85
2017-09-15T17:35:02.029Z,14.83
2017-09-15T17:36:16.210Z,14.81
2017-09-15T17:37:30.592Z,14.78
2017-09-15T17:38:44.362Z,14.73
2017-09-15T17:39:58.745Z,14.7
2017-09-15T17:41:12.621Z,14.65
2017-09-15T17:42:26.406Z,14.63
2017-09-15T17:43:40.065Z,14.58
2017-09-15T17:44:54.415Z,14.53
2017-09-15T17:46:08.450Z,14.51
2017-09-15T17:47:22.642Z,14.46
2017-09-15T17:48:36.470Z,14.41
2017-09-15T17:49:50.108Z,14.37
2017-09-15T17:51:04.034Z,14.31
2017-09-15T17:52:18.278Z,14.25
2017-09-15T17:53:31.940Z,14.23
2017-09-15T17:54:45.936Z,14.16
2017-09-15T17:55:59.594Z,14.15
2017-09-15T17:57:14.951Z,14.09
2017-09-15T17:58:28.699Z,14.05
2017-09-15T17:59:43.253Z,14
2017-09-15T18:00:57.112Z,13.96
2017-09-15T18:02:10.713Z,13.94
2017-09-15T18:03:24.906Z,13.92
2017-09-15T18:04:38.831Z,13.91
2017-09-15T18:05:52.520Z,13.91
2017-09-15T18:07:06.584Z,13.89
2017-09-15T18:08:20.191Z,13.85
2017-09-15T18:09:34.572Z,13.84
2017-09-15T18:10:48.462Z,13.8
2017-09-15T18:12:02.295Z,13.79
2017-09-15T18:13:16.308Z,13.79
2017-09-15T18:14:31.856Z,13.79
2017-09-15T18:15:46.429Z,13.79
2017-09-15T18:17:01.316Z,13.79
2017-09-15T18:18:15.401Z,13.8
2017-09-15T18:19:29.047Z,13.81
2017-09-15T18:20:42.721Z,13.81
2017-09-15T18:21:57.982Z,13.82
2017-09-15T18:23:12.707Z,13.83
2017-09-15T18:24:26.996Z,13.83
2017-09-15T18:25:40.782Z,13.81
2017-09-15T18:26:55.449Z,13.78
2017-09-15T18:28:09.573Z,13.77
2017-09-15T18:29:24.122Z,13.73
2017-09-15T18:30:38.954Z,13.72
2017-09-15T18:31:53.270Z,13.71
2017-09-15T18:33:07.410Z,13.67
2017-09-15T18:34:22.000Z,13.63
2017-09-15T18:35:37.118Z,13.6
2017-09-15T18:36:51.515Z,13.56
2017-09-15T18:38:06.219Z,13.54
2017-09-15T18:39:20.791Z,13.51
2017-09-15T18:40:35.152Z,13.5
2017-09-15T18:41:48.805Z,13.49
2017-09-15T18:43:02.721Z,13.49
2017-09-15T18:44:16.438Z,13.49
2017-09-15T18:45:30.241Z,13.47
2017-09-15T18:46:44.870Z,13.44
2017-09-15T18:47:58.567Z,13.42
2017-09-15T18:49:12.571Z,13.4
2017-09-15T18:50:26.307Z,13.39
2017-09-15T18:51:39.931Z,13.39
2017-09-15T18:52:54.204Z,13.38
2017-09-15T18:54:08.608Z,13.37
2017-09-15T18:55:22.842Z,13.36
2017-09-15T18:56:36.707Z,13.34
2017-09-15T18:57:50.629Z,13.33
2017-09-15T18:59:04.438Z,13.3
2017-09-15T19:00:18.081Z,13.27
2017-09-15T19:01:32.093Z,13.26
2017-09-15T19:02:45.719Z,13.24
2017-09-15T19:04:00.132Z,13.25
2017-09-15T19:05:18.101Z,13.24
2017-09-15T19:06:32.201Z,13.25
2017-09-15T19:07:45.882Z,13.27
2017-09-15T19:09:00.012Z,13.3
2017-09-15T19:10:13.748Z,13.32
2017-09-15T19:11:27.789Z,13.35
2017-09-15T19:12:41.860Z,13.35
2017-09-15T19:13:57.225Z,13.39
2017-09-15T19:15:11.616Z,13.39
2017-09-15T19:16:25.399Z,13.38
2017-09-15T19:17:39.623Z,13.38
2017-09-15T19:18:53.397Z,13.39
2017-09-15T19:20:07.839Z,13.38
2017-09-15T19:21:24.824Z,13.38
2017-09-15T19:22:39.006Z,13.38
2017-09-15T19:23:53.479Z,13.39
2017-09-15T19:25:07.532Z,13.4
2017-09-15T19:26:21.210Z,13.4
2017-09-15T19:27:34.783Z,13.41
2017-09-15T19:28:48.811Z,13.4
2017-09-15T19:30:03.266Z,13.4
2017-09-15T19:31:17.148Z,13.39
2017-09-15T19:32:31.555Z,13.42
2017-09-15T19:33:45.177Z,13.42
2017-09-15T19:34:59.022Z,13.41
2017-09-15T19:36:13.593Z,13.37
2017-09-15T19:37:27.441Z,13.38
2017-09-15T19:38:41.565Z,13.37
2017-09-15T19:39:55.285Z,13.39
2017-09-15T19:41:08.994Z,13.38
2017-09-15T19:42:23.604Z,13.37
2017-09-15T19:43:38.574Z,13.38
2017-09-15T19:44:53.286Z,13.39
2017-09-15T19:46:07.952Z,13.37
2017-09-15T19:47:22.131Z,13.38
2017-09-15T19:48:38.057Z,13.38
2017-09-15T19:49:51.913Z,13.36
2017-09-15T19:51:06.427Z,13.35
2017-09-15T19:52:20.403Z,13.34
2017-09-15T19:53:34.215Z,13.34
2017-09-15T19:54:48.547Z,13.34
2017-09-15T19:56:02.321Z,13.34
2017-09-15T19:57:15.947Z,13.31
2017-09-15T19:58:29.949Z,13.3
2017-09-15T19:59:43.753Z,13.27
2017-09-15T20:00:58.027Z,13.24
2017-09-15T20:02:11.658Z,13.21
2017-09-15T20:03:25.392Z,13.18
2017-09-15T20:04:52.212Z,13.13
2017-09-15T20:06:58.583Z,13.1
2017-09-15T20:08:58.036Z,13.08
2017-09-15T20:11:09.790Z,13.06
2017-09-15T20:13:08.123Z,13.03
2017-09-15T20:15:07.420Z,13
2017-09-15T20:16:21.015Z,12.99
2017-09-15T20:17:34.697Z,12.98
2017-09-15T20:18:48.406Z,12.99
2017-09-15T20:20:17.299Z,12.96
2017-09-15T20:21:31.345Z,12.95
2017-09-15T20:22:45.451Z,12.93
2017-09-15T20:23:59.222Z,12.9
2017-09-15T20:25:13.701Z,12.9
2017-09-15T20:26:27.593Z,12.86
2017-09-15T20:27:41.234Z,12.85
2017-09-15T20:28:54.845Z,12.82
2017-09-15T20:30:09.028Z,12.8
2017-09-15T20:31:25.772Z,12.76
2017-09-15T20:32:40.088Z,12.75
2017-09-15T20:33:54.122Z,12.73
2017-09-15T20:35:07.723Z,12.71
2017-09-15T20:36:21.308Z,12.69
2017-09-15T20:37:35.227Z,12.67
2017-09-15T20:38:49.122Z,12.65
2017-09-15T20:40:03.336Z,12.62
2017-09-15T20:41:17.465Z,12.62
2017-09-15T20:42:31.737Z,12.6
2017-09-15T20:43:45.685Z,12.56
2017-09-15T20:44:59.557Z,12.56
2017-09-15T20:46:13.180Z,12.55
2017-09-15T20:47:26.976Z,12.53
2017-09-15T20:48:40.585Z,12.51
2017-09-15T20:49:56.489Z,12.48
2017-09-15T20:51:10.867Z,12.42
2017-09-15T20:52:24.451Z,12.37
2017-09-15T20:53:38.724Z,12.32
2017-09-15T20:54:52.735Z,12.26
2017-09-15T20:56:06.624Z,12.19
2017-09-15T20:57:20.629Z,12.14
2017-09-15T20:58:34.243Z,12.08
2017-09-15T20:59:48.463Z,12.05
2017-09-15T21:01:02.135Z,11.99
2017-09-15T21:02:16.313Z,11.96
2017-09-15T21:03:30.240Z,11.93
2017-09-15T21:04:45.494Z,11.89
2017-09-15T21:05:59.725Z,11.87
2017-09-15T21:07:13.324Z,11.84